Time;durP1;ratioP1;P1;durP2;ratioP2;P2;SDS_P1;SDS_P2;PMS_P1;PMS_P2;Temp;Humidity;BMP_temperature;BMP_pressure;BME280_temperature;BME280_humidity;BME280_pressure;Samples;Min_cycle;Max_cycle;Signal;HPM_P1;HPM_P2
2023/11/18 00:00:16;;;;;;;7.30;7.20;;;6.00;99.90;;;;;;5010770;28;20454;-71
2023/11/18 00:02:44;;;;;;;7.10;7.00;;;6.10;99.90;;;;;;5009966;28;20473;-70
2023/11/18 00:05:12;;;;;;;7.27;7.17;;;6.00;99.90;;;;;;5005767;28;20558;-72
2023/11/18 00:07:39;;;;;;;7.47;7.37;;;6.10;99.90;;;;;;5009431;28;20952;-72
2023/11/18 00:10:08;;;;;;;6.30;6.20;;;6.00;99.90;;;;;;5008301;28;20499;-70
2023/11/18 00:12:36;;;;;;;6.20;6.10;;;6.00;99.90;;;;;;5029544;28;20514;-71
2023/11/18 00:15:04;;;;;;;7.20;7.10;;;5.90;99.90;;;;;;5002097;28;20465;-69
2023/11/18 00:17:31;;;;;;;6.70;6.60;;;6.00;99.90;;;;;;5037743;28;20541;-69
2023/11/18 00:19:59;;;;;;;6.60;6.50;;;6.00;99.90;;;;;;5025922;28;20472;-70
2023/11/18 00:22:27;;;;;;;5.80;5.70;;;6.00;99.90;;;;;;4998386;28;20810;-70
2023/11/18 00:24:55;;;;;;;5.77;5.67;;;5.90;99.90;;;;;;4998263;28;20467;-69
2023/11/18 00:27:22;;;;;;;6.13;6.03;;;5.80;99.90;;;;;;5001893;28;20458;-71
2023/11/18 00:29:50;;;;;;;5.87;5.77;;;5.80;99.90;;;;;;5009386;28;20461;-69
2023/11/18 00:32:17;;;;;;;5.70;5.60;;;5.80;99.90;;;;;;5006255;28;20824;-71
2023/11/18 00:34:44;;;;;;;5.33;5.23;;;5.80;99.90;;;;;;5004652;28;20491;-69
2023/11/18 00:37:12;;;;;;;5.40;5.30;;;5.70;99.90;;;;;;5007034;28;21012;-71
2023/11/18 00:39:38;;;;;;;5.30;5.20;;;5.70;99.90;;;;;;5000141;28;20469;-71
2023/11/18 00:42:06;;;;;;;6.03;5.93;;;5.70;99.90;;;;;;5013489;28;20458;-69
2023/11/18 00:44:32;;;;;;;5.80;5.70;;;5.60;99.90;;;;;;5006212;28;21106;-72
2023/11/18 00:47:03;;;;;;;5.37;5.27;;;5.60;99.90;;;;;;5045176;28;20460;-69
2023/11/18 00:49:30;;;;;;;6.30;6.20;;;5.50;99.90;;;;;;5016496;28;20464;-70
2023/11/18 00:51:56;;;;;;;5.53;5.43;;;5.50;99.90;;;;;;5000744;28;20458;-70
2023/11/18 00:54:24;;;;;;;5.90;5.80;;;5.50;99.90;;;;;;4996201;28;20958;-69
2023/11/18 00:56:51;;;;;;;6.70;6.60;;;5.40;99.90;;;;;;5006851;28;20699;-69
2023/11/18 00:59:18;;;;;;;6.80;6.70;;;5.40;99.90;;;;;;5007470;28;20463;-70
2023/11/18 01:01:45;;;;;;;6.60;6.50;;;5.30;99.90;;;;;;5007434;28;20481;-70
2023/11/18 01:04:13;;;;;;;6.20;6.10;;;5.30;99.90;;;;;;5045083;28;20463;-69
2023/11/18 01:06:40;;;;;;;6.30;6.20;;;5.20;99.90;;;;;;5003924;28;20746;-70
2023/11/18 01:09:07;;;;;;;6.13;6.03;;;5.20;99.90;;;;;;5006434;28;20565;-70
2023/11/18 01:11:35;;;;;;;6.10;6.00;;;5.20;99.90;;;;;;5072136;28;20455;-70
2023/11/18 01:14:01;;;;;;;6.10;6.00;;;5.10;99.90;;;;;;5008382;28;20836;-68
2023/11/18 01:16:29;;;;;;;6.43;6.33;;;5.00;99.90;;;;;;5013343;28;20463;-69
2023/11/18 01:18:56;;;;;;;6.10;6.00;;;5.00;99.90;;;;;;5011846;28;21155;-70
2023/11/18 01:21:24;;;;;;;6.00;5.90;;;4.90;99.90;;;;;;5003989;28;20546;-70
2023/11/18 01:23:51;;;;;;;6.67;6.57;;;4.90;99.90;;;;;;5001871;28;20473;-69
2023/11/18 01:26:17;;;;;;;7.43;7.33;;;4.90;99.90;;;;;;5000753;28;20818;-70
2023/11/18 01:28:46;;;;;;;7.10;7.00;;;4.80;99.90;;;;;;5014793;28;20947;-70
2023/11/18 01:31:13;;;;;;;6.53;6.43;;;4.80;99.90;;;;;;5008039;28;20934;-71
2023/11/18 01:33:40;;;;;;;6.77;6.67;;;4.70;99.90;;;;;;5004844;28;20483;-70
2023/11/18 01:36:09;;;;;;;6.50;6.40;;;4.70;99.90;;;;;;5008677;28;20493;-69
2023/11/18 01:38:38;;;;;;;6.57;6.47;;;4.60;99.90;;;;;;5017120;28;20469;-72
2023/11/18 01:41:06;;;;;;;7.03;6.93;;;4.60;99.90;;;;;;5018904;28;20474;-71
2023/11/18 01:43:33;;;;;;;7.70;7.60;;;4.60;99.90;;;;;;4996692;28;20823;-70
2023/11/18 01:46:02;;;;;;;7.07;6.97;;;4.60;99.90;;;;;;5011492;27;20455;-70
2023/11/18 01:48:29;;;;;;;7.13;7.03;;;4.60;99.90;;;;;;5003727;28;20476;-70
2023/11/18 01:50:58;;;;;;;7.57;7.47;;;4.60;99.90;;;;;;5002709;28;20546;-70
2023/11/18 01:53:25;;;;;;;6.70;6.60;;;4.70;99.90;;;;;;5008245;28;20537;-70
2023/11/18 01:55:55;;;;;;;6.10;6.00;;;4.80;99.90;;;;;;5003081;28;20522;-70
2023/11/18 01:58:23;;;;;;;6.23;6.13;;;4.70;99.90;;;;;;5002073;28;20546;-71
2023/11/18 02:00:52;;;;;;;6.30;6.20;;;4.70;99.90;;;;;;5051845;28;20456;-70
2023/11/18 02:03:20;;;;;;;5.93;5.83;;;4.70;99.90;;;;;;5016372;28;20995;-69
2023/11/18 02:05:47;;;;;;;6.73;6.63;;;4.80;99.90;;;;;;5004863;28;20509;-70
2023/11/18 02:08:14;;;;;;;6.03;5.93;;;4.80;99.90;;;;;;5008253;28;20463;-70
2023/11/18 02:10:50;;;;;;;5.87;5.77;;;4.80;99.90;;;;;;5024804;28;20468;-69
2023/11/18 02:13:24;;;;;;;6.13;6.03;;;4.80;99.90;;;;;;5001494;28;20481;-69
2023/11/18 02:15:57;;;;;;;5.60;5.50;;;4.80;99.90;;;;;;5004948;28;20510;-69
2023/11/18 02:18:25;;;;;;;5.73;5.63;;;4.80;99.90;;;;;;5029442;28;20456;-68
2023/11/18 02:20:55;;;;;;;6.17;6.07;;;4.70;99.90;;;;;;5001180;28;20681;-68
2023/11/18 02:23:23;;;;;;;6.90;6.80;;;4.80;99.90;;;;;;5006389;28;20539;-69
2023/11/18 02:25:52;;;;;;;6.23;6.13;;;4.70;99.90;;;;;;5009171;28;20459;-71
2023/11/18 02:28:20;;;;;;;6.43;6.33;;;4.80;99.90;;;;;;4999869;28;20468;-69
2023/11/18 02:30:49;;;;;;;6.23;6.13;;;4.70;99.90;;;;;;5002807;28;20465;-71
2023/11/18 02:33:21;;;;;;;6.50;6.40;;;4.70;99.90;;;;;;4999276;28;20950;-70
2023/11/18 02:35:52;;;;;;;6.27;6.17;;;4.80;99.90;;;;;;5007864;28;20537;-70
2023/11/18 02:38:23;;;;;;;6.17;6.07;;;4.80;99.90;;;;;;5009589;28;20595;-69
2023/11/18 02:40:56;;;;;;;6.33;6.23;;;4.70;99.90;;;;;;5034037;28;20458;-68
2023/11/18 02:43:25;;;;;;;6.23;6.13;;;4.70;99.90;;;;;;5003059;28;20505;-71
2023/11/18 02:45:54;;;;;;;6.50;6.40;;;4.70;99.90;;;;;;5000432;28;20489;-69
2023/11/18 02:48:21;;;;;;;6.00;5.90;;;4.70;99.90;;;;;;5000986;28;20482;-70
2023/11/18 02:50:49;;;;;;;6.40;6.30;;;4.70;99.90;;;;;;5005904;28;20440;-69
2023/11/18 02:53:15;;;;;;;6.60;6.50;;;4.70;99.90;;;;;;5003987;28;20464;-69
2023/11/18 02:55:43;;;;;;;6.70;6.60;;;4.80;99.90;;;;;;5005187;28;20659;-70
2023/11/18 02:58:11;;;;;;;7.10;7.00;;;4.80;99.90;;;;;;5009170;28;20517;-70
2023/11/18 03:00:38;;;;;;;7.93;7.83;;;4.90;99.90;;;;;;5007347;28;20465;-70
2023/11/18 03:03:05;;;;;;;7.00;6.90;;;4.90;99.90;;;;;;4997783;28;20533;-70
2023/11/18 03:05:32;;;;;;;6.77;6.67;;;4.90;99.90;;;;;;5000034;28;20545;-70
2023/11/18 03:07:59;;;;;;;6.70;6.60;;;4.80;99.90;;;;;;5060876;28;20450;-69
2023/11/18 03:10:26;;;;;;;6.30;6.20;;;4.80;99.90;;;;;;5019822;28;20460;-70
2023/11/18 03:12:54;;;;;;;6.10;6.00;;;4.80;99.90;;;;;;5000752;28;20460;-69
2023/11/18 03:15:25;;;;;;;6.10;6.00;;;4.80;99.90;;;;;;5017243;28;20588;-70
2023/11/18 03:17:53;;;;;;;6.10;6.00;;;4.80;99.90;;;;;;5006977;28;20526;-70
2023/11/18 03:20:20;;;;;;;6.63;6.53;;;4.80;99.90;;;;;;5008663;28;20969;-69
2023/11/18 03:22:48;;;;;;;6.40;6.30;;;4.80;99.90;;;;;;5000899;28;20476;-69
2023/11/18 03:25:15;;;;;;;6.30;6.20;;;4.90;99.90;;;;;;4998050;28;20464;-69
2023/11/18 03:27:41;;;;;;;5.80;5.70;;;4.80;99.90;;;;;;5011756;28;20450;-68
2023/11/18 03:30:09;;;;;;;5.77;5.67;;;4.80;99.90;;;;;;5064836;28;20581;-69
2023/11/18 03:32:40;;;;;;;5.93;5.83;;;4.70;99.90;;;;;;4996579;28;20889;-70
2023/11/18 03:35:08;;;;;;;5.93;5.83;;;4.80;99.90;;;;;;5008333;28;20990;-70
2023/11/18 03:37:38;;;;;;;6.17;6.07;;;4.70;99.90;;;;;;5003524;28;20878;-68
2023/11/18 03:40:07;;;;;;;5.87;5.77;;;4.70;99.90;;;;;;5002638;28;20465;-70
2023/11/18 03:42:35;;;;;;;5.97;5.87;;;4.70;99.90;;;;;;5019236;28;20453;-69
2023/11/18 03:45:02;;;;;;;6.10;6.00;;;4.70;99.90;;;;;;5028485;28;20506;-69
2023/11/18 03:47:30;;;;;;;6.03;5.93;;;4.60;99.90;;;;;;5005504;28;20471;-68
2023/11/18 03:49:59;;;;;;;5.67;5.57;;;4.60;99.90;;;;;;4996198;28;20470;-68
2023/11/18 03:52:27;;;;;;;5.80;5.70;;;4.60;99.90;;;;;;5007042;28;20858;-70
2023/11/18 03:54:54;;;;;;;5.40;5.30;;;4.60;99.90;;;;;;4996082;28;21231;-68
2023/11/18 03:57:21;;;;;;;5.63;5.53;;;4.60;99.90;;;;;;5007890;28;20451;-69
2023/11/18 03:59:49;;;;;;;5.27;5.17;;;4.60;99.90;;;;;;5007252;28;20878;-69
2023/11/18 04:02:16;;;;;;;5.30;5.20;;;4.60;99.90;;;;;;5044055;28;20562;-70
2023/11/18 04:04:44;;;;;;;5.17;5.07;;;4.60;99.90;;;;;;5005226;28;20465;-68
2023/11/18 04:07:12;;;;;;;4.83;4.83;;;4.50;99.90;;;;;;5007210;28;20466;-70
2023/11/18 04:09:41;;;;;;;5.20;5.10;;;4.60;99.90;;;;;;5003192;28;20467;-69
2023/11/18 04:12:09;;;;;;;5.60;5.50;;;4.50;99.90;;;;;;5064224;28;20493;-69
2023/11/18 04:14:36;;;;;;;5.17;5.10;;;4.50;99.90;;;;;;5006781;28;20491;-69
2023/11/18 04:17:03;;;;;;;4.80;4.80;;;4.50;99.90;;;;;;4999359;28;20910;-69
2023/11/18 04:19:29;;;;;;;5.13;5.03;;;4.50;99.90;;;;;;4999160;28;20462;-69
2023/11/18 04:21:56;;;;;;;4.43;4.43;;;4.40;99.90;;;;;;5013736;28;20454;-70
2023/11/18 04:24:25;;;;;;;4.70;4.70;;;4.40;99.90;;;;;;5007960;28;20458;-70
2023/11/18 04:26:52;;;;;;;5.00;5.00;;;4.50;99.90;;;;;;5002306;28;21403;-67
2023/11/18 04:29:19;;;;;;;4.90;4.90;;;4.50;99.90;;;;;;4997050;28;20466;-68
2023/11/18 04:31:45;;;;;;;4.83;4.83;;;4.50;99.90;;;;;;5004591;28;20496;-68
2023/11/18 04:34:13;;;;;;;5.00;5.00;;;4.50;99.90;;;;;;5003769;28;21008;-69
2023/11/18 04:36:42;;;;;;;4.80;4.80;;;4.50;99.90;;;;;;5008603;28;20466;-68
2023/11/18 04:39:11;;;;;;;5.20;5.10;;;4.60;99.90;;;;;;5006819;28;20489;-70
2023/11/18 04:41:39;;;;;;;4.80;4.80;;;4.60;99.90;;;;;;5000137;28;20474;-70
2023/11/18 04:44:06;;;;;;;5.57;5.47;;;4.60;99.90;;;;;;5008543;28;20867;-68
2023/11/18 04:46:34;;;;;;;5.13;5.03;;;4.60;99.90;;;;;;5032055;28;20461;-71
2023/11/18 04:49:01;;;;;;;5.50;5.40;;;4.70;99.90;;;;;;5009960;28;20843;-70
2023/11/18 04:51:28;;;;;;;5.80;5.70;;;4.70;99.90;;;;;;5033330;28;20531;-69
2023/11/18 04:53:55;;;;;;;5.23;5.13;;;4.70;99.90;;;;;;5011944;28;20884;-69
2023/11/18 04:56:22;;;;;;;5.60;5.50;;;4.70;99.90;;;;;;5001106;28;20489;-70
2023/11/18 04:58:50;;;;;;;5.27;5.17;;;4.70;99.90;;;;;;5009237;28;20454;-70
2023/11/18 05:01:18;;;;;;;5.27;5.17;;;4.70;99.90;;;;;;5013675;28;20455;-70
2023/11/18 05:03:44;;;;;;;5.47;5.37;;;4.70;99.90;;;;;;5004704;28;20569;-69
2023/11/18 05:06:12;;;;;;;5.77;5.67;;;4.70;99.90;;;;;;5005471;28;20458;-69
2023/11/18 05:08:39;;;;;;;5.40;5.30;;;4.70;99.90;;;;;;5001945;28;20463;-70
2023/11/18 05:11:06;;;;;;;5.50;5.40;;;4.70;99.90;;;;;;5004956;28;20503;-71
2023/11/18 05:13:33;;;;;;;5.87;5.77;;;4.70;99.90;;;;;;4997489;28;20469;-69
2023/11/18 05:16:01;;;;;;;5.30;5.20;;;4.70;99.90;;;;;;5005108;28;20496;-71
2023/11/18 05:18:33;;;;;;;5.40;5.30;;;4.70;99.90;;;;;;5003865;28;20535;-70
2023/11/18 05:21:00;;;;;;;5.10;5.07;;;4.70;99.90;;;;;;5008471;28;20460;-70
2023/11/18 05:23:29;;;;;;;5.60;5.50;;;4.70;99.90;;;;;;4999480;28;21052;-70
2023/11/18 05:25:57;;;;;;;5.67;5.57;;;4.70;99.90;;;;;;5015360;28;20542;-71
2023/11/18 05:28:25;;;;;;;5.20;5.10;;;4.70;99.90;;;;;;5000508;28;20985;-70
2023/11/18 05:30:52;;;;;;;5.23;5.13;;;4.70;99.90;;;;;;5029159;28;20857;-71
2023/11/18 05:33:21;;;;;;;5.47;5.37;;;4.70;99.90;;;;;;5007018;28;20510;-70
2023/11/18 05:35:49;;;;;;;5.50;5.40;;;4.80;99.90;;;;;;5001878;28;20496;-69
2023/11/18 05:38:18;;;;;;;5.27;5.17;;;4.80;99.90;;;;;;5004529;28;20489;-69
2023/11/18 05:40:55;;;;;;;5.50;5.40;;;4.80;99.90;;;;;;5036296;28;20467;-69
2023/11/18 05:43:24;;;;;;;5.60;5.50;;;4.80;99.90;;;;;;5002626;28;20566;-70
2023/11/18 05:48:40;;;;;;;5.80;5.70;;;4.90;99.90;;;;;;5003693;28;20463;-70
2023/11/18 05:51:06;;;;;;;5.97;5.87;;;4.90;99.90;;;;;;5005632;28;20458;-70
2023/11/18 05:53:34;;;;;;;6.00;5.90;;;4.90;99.90;;;;;;5003466;28;20462;-69
2023/11/18 05:56:00;;;;;;;5.83;5.73;;;4.90;99.90;;;;;;4996735;28;20498;-68
2023/11/18 05:58:28;;;;;;;6.13;6.03;;;5.00;99.90;;;;;;5008478;28;20458;-69
2023/11/18 06:00:55;;;;;;;6.20;6.10;;;5.00;99.90;;;;;;5003961;28;20566;-70
2023/11/18 06:03:22;;;;;;;5.73;5.63;;;4.90;99.90;;;;;;5005409;28;20476;-68
2023/11/18 06:05:51;;;;;;;5.83;5.73;;;4.90;99.90;;;;;;5029109;28;20484;-68
2023/11/18 06:08:17;;;;;;;5.40;5.30;;;5.00;99.90;;;;;;5007245;28;20847;-69
2023/11/18 06:10:45;;;;;;;6.03;5.93;;;5.00;99.90;;;;;;4995940;28;20473;-68
2023/11/18 06:13:12;;;;;;;5.67;5.57;;;5.00;99.90;;;;;;5052290;28;20486;-71
2023/11/18 06:15:40;;;;;;;5.67;5.57;;;5.00;99.90;;;;;;5021812;28;20525;-69
2023/11/18 06:18:06;;;;;;;5.70;5.60;;;5.10;99.90;;;;;;5016347;28;20458;-69
2023/11/18 06:20:36;;;;;;;5.43;5.33;;;5.00;99.90;;;;;;5002749;28;20468;-70
2023/11/18 06:23:04;;;;;;;5.77;5.67;;;5.00;99.90;;;;;;4997884;28;21035;-69
2023/11/18 06:25:31;;;;;;;5.97;5.87;;;5.10;99.90;;;;;;4994372;28;21033;-70
2023/11/18 06:27:58;;;;;;;5.97;5.87;;;5.10;99.90;;;;;;5007893;28;20481;-71
2023/11/18 06:30:27;;;;;;;6.13;6.03;;;5.10;99.90;;;;;;5003900;28;20506;-71
2023/11/18 06:32:54;;;;;;;6.10;6.00;;;5.10;99.90;;;;;;5005739;28;20462;-68
2023/11/18 06:35:21;;;;;;;5.53;5.43;;;5.10;99.90;;;;;;4996882;28;20496;-69
2023/11/18 06:37:48;;;;;;;5.90;5.80;;;5.10;99.90;;;;;;4998561;28;20517;-69
2023/11/18 06:40:21;;;;;;;6.00;5.90;;;5.10;99.90;;;;;;5008474;28;21119;-69
2023/11/18 06:42:48;;;;;;;6.27;6.17;;;5.10;99.90;;;;;;4998096;28;20474;-70
2023/11/18 06:45:16;;;;;;;5.70;5.60;;;5.20;99.90;;;;;;5027177;28;20989;-68
2023/11/18 06:47:45;;;;;;;6.30;6.20;;;5.20;99.90;;;;;;5051653;28;20876;-69
2023/11/18 06:50:15;;;;;;;6.50;6.40;;;5.20;99.90;;;;;;5006443;28;20469;-69
2023/11/18 06:52:43;;;;;;;6.33;6.23;;;5.20;99.90;;;;;;4998832;28;20530;-70
2023/11/18 06:55:11;;;;;;;6.93;6.83;;;5.30;99.90;;;;;;4996622;28;20553;-71
2023/11/18 06:57:39;;;;;;;6.63;6.53;;;5.40;99.90;;;;;;5005677;28;20447;-71
2023/11/18 07:00:08;;;;;;;6.50;6.40;;;5.40;99.90;;;;;;5004802;28;20469;-70
2023/11/18 07:02:35;;;;;;;6.33;6.23;;;5.40;99.90;;;;;;4997564;28;20553;-70
2023/11/18 07:05:02;;;;;;;6.53;6.43;;;5.40;99.90;;;;;;5003653;28;20457;-69
2023/11/18 07:07:29;;;;;;;7.60;7.50;;;5.40;99.90;;;;;;5006351;28;20480;-70
2023/11/18 07:09:56;;;;;;;7.17;7.07;;;5.50;99.90;;;;;;4996439;28;20973;-72
2023/11/18 07:12:24;;;;;;;8.23;8.13;;;5.50;99.90;;;;;;5003787;28;20454;-70
2023/11/18 07:14:53;;;;;;;7.30;7.20;;;5.60;99.90;;;;;;4996791;28;20557;-69
2023/11/18 07:17:20;;;;;;;7.07;6.97;;;5.60;99.90;;;;;;5012174;28;20486;-70
2023/11/18 07:19:49;;;;;;;6.70;6.60;;;5.50;99.90;;;;;;5005479;28;20461;-69
2023/11/18 07:22:16;;;;;;;6.90;6.80;;;5.50;99.90;;;;;;5012186;28;20472;-68
2023/11/18 07:24:43;;;;;;;6.77;6.67;;;5.50;99.90;;;;;;4998371;28;20479;-69
2023/11/18 07:27:11;;;;;;;6.40;6.30;;;5.50;99.90;;;;;;5007088;28;20542;-69
2023/11/18 07:29:38;;;;;;;6.40;6.30;;;5.50;99.90;;;;;;5004613;28;20466;-70
2023/11/18 07:32:06;;;;;;;6.03;5.93;;;5.60;99.90;;;;;;4996830;28;20832;-71
2023/11/18 07:34:33;;;;;;;6.20;6.10;;;5.60;99.90;;;;;;4998516;28;20960;-71
2023/11/18 07:37:01;;;;;;;6.03;5.93;;;5.60;99.90;;;;;;5004505;28;20486;-69
2023/11/18 07:39:43;;;;;;;6.17;6.07;;;5.60;99.90;;;;;;5005893;28;20462;-68
2023/11/18 07:42:12;;;;;;;6.77;6.67;;;5.60;99.90;;;;;;4997168;28;20466;-69
2023/11/18 07:44:40;;;;;;;6.50;6.40;;;5.70;99.90;;;;;;5003146;28;20893;-70
2023/11/18 07:47:08;;;;;;;5.90;5.80;;;5.70;99.90;;;;;;4998969;28;20504;-71
2023/11/18 07:49:35;;;;;;;6.17;6.07;;;5.70;99.90;;;;;;5009077;28;20918;-71
2023/11/18 07:52:02;;;;;;;6.23;6.13;;;5.70;99.90;;;;;;5007597;28;20481;-71
2023/11/18 07:54:29;;;;;;;5.77;5.67;;;5.70;99.90;;;;;;5005012;28;20485;-69
2023/11/18 07:56:57;;;;;;;6.17;6.07;;;5.80;99.90;;;;;;4993014;28;20497;-70
2023/11/18 07:59:24;;;;;;;5.90;5.80;;;5.80;99.90;;;;;;5005493;28;20453;-71
2023/11/18 08:01:53;;;;;;;5.30;5.20;;;5.80;99.90;;;;;;5006204;28;20466;-70
2023/11/18 08:04:21;;;;;;;5.00;5.00;;;5.90;99.90;;;;;;5013835;28;20474;-71
2023/11/18 08:06:48;;;;;;;5.37;5.27;;;5.90;99.90;;;;;;4999850;28;20474;-71
2023/11/18 08:09:22;;;;;;;5.70;5.60;;;5.90;99.90;;;;;;5000448;28;20996;-71
2023/11/18 08:11:49;;;;;;;5.40;5.30;;;5.90;99.90;;;;;;5008588;28;20461;-70
2023/11/18 08:14:17;;;;;;;5.53;5.43;;;5.90;99.90;;;;;;5047337;28;20541;-71
2023/11/18 08:16:43;;;;;;;5.67;5.57;;;6.00;99.90;;;;;;5008993;28;20576;-70
2023/11/18 08:19:10;;;;;;;5.73;5.63;;;6.10;99.90;;;;;;5009313;28;20826;-70
2023/11/18 08:21:39;;;;;;;5.13;5.03;;;6.10;99.90;;;;;;5002587;28;20788;-69
2023/11/18 08:24:08;;;;;;;5.20;5.10;;;6.10;99.90;;;;;;5009070;28;20459;-69
2023/11/18 08:26:34;;;;;;;5.23;5.13;;;6.10;99.90;;;;;;5006192;28;20943;-69
2023/11/18 08:29:01;;;;;;;5.33;5.23;;;6.10;99.90;;;;;;5005127;28;20469;-71
2023/11/18 08:31:28;;;;;;;5.70;5.60;;;6.20;99.90;;;;;;5009595;28;20469;-71
2023/11/18 08:33:55;;;;;;;5.27;5.17;;;6.20;99.90;;;;;;5001751;28;20631;-71
2023/11/18 08:36:26;;;;;;;5.53;5.43;;;6.30;99.90;;;;;;5004584;28;20493;-71
2023/11/18 08:38:56;;;;;;;5.70;5.60;;;6.30;99.90;;;;;;5005418;28;20472;-71
2023/11/18 08:41:23;;;;;;;5.70;5.60;;;6.40;99.90;;;;;;5009455;28;20817;-69
2023/11/18 08:43:50;;;;;;;5.30;5.20;;;6.40;99.90;;;;;;5005891;28;20493;-70
2023/11/18 08:46:17;;;;;;;5.60;5.50;;;6.50;99.90;;;;;;5008107;28;20471;-71
2023/11/18 08:48:45;;;;;;;5.77;5.67;;;6.50;99.90;;;;;;5004597;28;20458;-71
2023/11/18 08:51:13;;;;;;;5.60;5.50;;;6.50;99.90;;;;;;5007427;28;20949;-70
2023/11/18 08:53:42;;;;;;;5.80;5.70;;;6.60;99.90;;;;;;5004875;28;20531;-70
2023/11/18 08:56:13;;;;;;;6.30;6.20;;;6.60;99.90;;;;;;5003605;28;20498;-70
2023/11/18 08:58:44;;;;;;;6.23;6.13;;;6.70;99.90;;;;;;5011172;28;20473;-69
2023/11/18 09:01:14;;;;;;;5.90;5.80;;;6.70;99.90;;;;;;5017882;28;20473;-70
2023/11/18 09:03:48;;;;;;;6.13;6.03;;;6.70;99.90;;;;;;4998642;28;20476;-69
2023/11/18 09:06:18;;;;;;;5.83;5.73;;;6.70;99.90;;;;;;5013040;28;20579;-69
2023/11/18 09:08:52;;;;;;;5.93;5.83;;;6.80;99.90;;;;;;5010789;28;21137;-71
2023/11/18 09:11:22;;;;;;;6.40;6.30;;;6.80;99.90;;;;;;5007457;28;20885;-68
2023/11/18 09:13:53;;;;;;;6.83;6.73;;;6.90;99.90;;;;;;5000930;28;20819;-69
2023/11/18 09:16:22;;;;;;;5.80;5.70;;;7.00;99.90;;;;;;5004328;28;20497;-68
2023/11/18 09:18:49;;;;;;;7.30;7.20;;;7.00;99.90;;;;;;5025121;28;20472;-68
2023/11/18 09:21:19;;;;;;;6.10;6.00;;;7.10;99.90;;;;;;5003711;28;20859;-69
2023/11/18 09:23:47;;;;;;;6.93;6.83;;;7.10;99.90;;;;;;5013251;28;20508;-70
2023/11/18 09:26:16;;;;;;;7.03;6.93;;;7.20;99.90;;;;;;5005452;28;20516;-70
2023/11/18 09:28:45;;;;;;;6.40;6.30;;;7.20;99.90;;;;;;4998274;28;20867;-69
2023/11/18 09:31:12;;;;;;;7.00;6.90;;;7.30;99.90;;;;;;5002884;28;20493;-71
2023/11/18 09:33:44;;;;;;;6.80;6.70;;;7.30;99.90;;;;;;5006097;28;20916;-68
2023/11/18 09:36:12;;;;;;;7.20;7.10;;;7.30;99.90;;;;;;5006220;28;20474;-70
2023/11/18 09:38:41;;;;;;;6.70;6.60;;;7.40;99.90;;;;;;5005575;28;20977;-69
2023/11/18 09:41:11;;;;;;;7.40;7.30;;;7.40;99.90;;;;;;5005243;28;20462;-72
2023/11/18 09:43:45;;;;;;;6.13;6.03;;;7.50;99.90;;;;;;4998454;28;20485;-71
2023/11/18 09:46:14;;;;;;;7.30;7.20;;;7.50;99.90;;;;;;4995549;28;20980;-72
2023/11/18 09:48:46;;;;;;;6.97;6.87;;;7.60;99.90;;;;;;5018675;28;20466;-70
2023/11/18 09:51:17;;;;;;;7.10;7.00;;;7.60;99.90;;;;;;5003193;28;20964;-72
2023/11/18 09:53:46;;;;;;;7.00;6.90;;;7.70;99.90;;;;;;5007251;28;20458;-70
2023/11/18 09:56:26;;;;;;;6.70;6.60;;;7.70;99.90;;;;;;4999109;28;20512;-72
2023/11/18 10:26:03;;;;;;;6.60;6.50;;;7.60;99.90;;;;;;5116290;27;20517;-70
2023/11/18 10:28:32;;;;;;;7.63;7.53;;;8.10;99.90;;;;;;5120227;28;20453;-70
2023/11/18 10:31:04;;;;;;;7.63;7.53;;;8.10;99.90;;;;;;5122541;28;20459;-70
2023/11/18 10:33:31;;;;;;;8.30;8.20;;;8.20;99.90;;;;;;5118312;28;21063;-71
2023/11/18 10:36:02;;;;;;;8.37;8.27;;;8.20;99.90;;;;;;5122284;28;21145;-71
2023/11/18 10:38:30;;;;;;;8.97;8.77;;;8.20;99.90;;;;;;5107993;28;20461;-71
2023/11/18 10:40:59;;;;;;;9.40;9.20;;;8.20;99.90;;;;;;5122372;28;20464;-71
2023/11/18 10:43:28;;;;;;;9.40;9.20;;;8.10;99.90;;;;;;5115720;28;20807;-68
2023/11/18 10:46:11;;;;;;;10.07;9.87;;;8.10;99.90;;;;;;5118982;28;20460;-71
2023/11/18 10:48:41;;;;;;;10.80;10.50;;;8.20;99.90;;;;;;5108074;28;20781;-70
2023/11/18 10:51:09;;;;;;;11.10;10.80;;;8.20;99.90;;;;;;5117042;28;21129;-70
2023/11/18 10:53:37;;;;;;;12.33;11.93;;;8.30;99.90;;;;;;5113429;28;20893;-70
2023/11/18 10:56:05;;;;;;;12.57;12.17;;;8.30;99.90;;;;;;5112475;28;20458;-70
2023/11/18 10:58:40;;;;;;;15.57;14.87;;;8.40;99.90;;;;;;5119329;28;20451;-70
2023/11/18 11:01:11;;;;;;;16.17;15.37;;;8.40;99.90;;;;;;5114841;28;20456;-71
2023/11/18 11:03:55;;;;;;;15.40;14.70;;;8.50;99.90;;;;;;5121539;28;20512;-72
2023/11/18 11:06:23;;;;;;;16.10;15.40;;;8.50;99.90;;;;;;5118799;28;20491;-69
2023/11/18 11:08:50;;;;;;;16.30;15.50;;;8.40;99.90;;;;;;5116463;28;20521;-71
2023/11/18 11:11:18;;;;;;;15.30;14.60;;;8.50;99.90;;;;;;5120567;28;20556;-72
2023/11/18 11:13:50;;;;;;;15.70;15.00;;;8.50;99.90;;;;;;5108238;28;20558;-72
2023/11/18 11:16:20;;;;;;;15.30;14.70;;;8.40;99.90;;;;;;5094055;28;20552;-70
2023/11/18 11:18:54;;;;;;;15.50;14.80;;;8.60;99.90;;;;;;5098412;28;20542;-70
2023/11/18 11:21:28;;;;;;;15.90;15.20;;;8.60;99.90;;;;;;5102177;28;20468;-69
2023/11/18 11:24:01;;;;;;;15.90;15.20;;;8.70;99.90;;;;;;5092058;28;20542;-68
2023/11/18 11:26:40;;;;;;;15.20;14.60;;;8.70;99.90;;;;;;5083484;28;20469;-68
2023/11/18 11:29:22;;;;;;;16.20;15.50;;;8.60;99.90;;;;;;5079521;28;20461;-69
2023/11/18 11:31:58;;;;;;;14.87;14.27;;;8.70;99.90;;;;;;5086935;28;20467;-70
2023/11/18 11:34:27;;;;;;;14.90;14.30;;;8.50;99.90;;;;;;5084836;28;20975;-71
2023/11/18 11:36:55;;;;;;;14.70;14.10;;;8.60;99.90;;;;;;5080204;28;20458;-70
2023/11/18 11:39:25;;;;;;;14.30;13.80;;;8.50;99.90;;;;;;5078263;28;20845;-71
2023/11/18 11:41:54;;;;;;;14.27;13.77;;;8.50;99.90;;;;;;5093437;28;20458;-72
2023/11/18 11:44:28;;;;;;;14.87;14.27;;;8.50;99.90;;;;;;5083299;28;20588;-70
2023/11/18 11:46:56;;;;;;;14.27;13.77;;;8.50;99.90;;;;;;5075670;28;20466;-70
2023/11/18 11:49:27;;;;;;;15.23;14.63;;;8.50;99.90;;;;;;5079551;28;20463;-73
2023/11/18 11:52:00;;;;;;;15.20;14.60;;;8.60;99.90;;;;;;5082354;28;20450;-71
2023/11/18 11:54:30;;;;;;;14.60;14.07;;;8.60;99.90;;;;;;5081745;28;20477;-71
2023/11/18 11:57:00;;;;;;;14.20;13.70;;;8.60;99.90;;;;;;5080549;28;20455;-70
2023/11/18 11:59:56;;;;;;;14.47;13.90;;;8.70;99.90;;;;;;5079629;28;20972;-71
2023/11/18 12:02:26;;;;;;;14.93;14.33;;;8.70;99.90;;;;;;5077434;28;20473;-71
2023/11/18 12:04:58;;;;;;;15.40;14.80;;;8.70;99.90;;;;;;5075262;28;20474;-71
2023/11/18 12:07:27;;;;;;;14.83;14.23;;;8.70;99.90;;;;;;5076426;28;20486;-70
2023/11/18 12:09:57;;;;;;;14.87;14.27;;;8.60;99.90;;;;;;5077733;28;20447;-70
2023/11/18 12:12:27;;;;;;;14.50;14.00;;;8.60;99.90;;;;;;5084894;28;20459;-71
2023/11/18 12:14:58;;;;;;;14.47;13.97;;;8.50;99.90;;;;;;5079880;28;21112;-70
2023/11/18 12:17:31;;;;;;;14.53;14.03;;;8.50;99.90;;;;;;5083510;28;20477;-69
2023/11/18 12:19:59;;;;;;;14.87;14.27;;;8.50;99.90;;;;;;5085051;28;20462;-71
2023/11/18 12:22:30;;;;;;;14.80;14.20;;;8.50;99.90;;;;;;5084278;28;20484;-70
2023/11/18 12:25:32;;;;;;;15.40;14.80;;;8.50;99.90;;;;;;5065808;28;20500;-70
2023/11/18 12:28:08;;;;;;;16.23;15.53;;;8.60;99.90;;;;;;5059720;28;20455;-70
2023/11/18 12:30:55;;;;;;;15.70;15.00;;;8.60;99.90;;;;;;5064628;28;20968;-70
2023/11/18 12:33:26;;;;;;;15.40;14.80;;;8.60;99.90;;;;;;5061371;28;20460;-71
2023/11/18 12:36:31;;;;;;;15.30;14.70;;;8.40;99.90;;;;;;5059845;28;20563;-71
2023/11/18 12:39:37;;;;;;;13.83;13.33;;;8.40;99.90;;;;;;5063853;28;20454;-69
2023/11/18 12:42:07;;;;;;;15.17;14.57;;;8.30;99.90;;;;;;5059976;28;20591;-72
2023/11/18 12:44:41;;;;;;;14.77;14.17;;;8.30;99.90;;;;;;5053521;28;20511;-72
2023/11/18 12:47:18;;;;;;;13.53;13.03;;;8.40;99.90;;;;;;5059981;28;20833;-71
2023/11/18 12:49:49;;;;;;;13.50;13.03;;;8.30;99.90;;;;;;5060316;28;20463;-72
2023/11/18 12:52:18;;;;;;;13.07;12.67;;;8.40;99.90;;;;;;5053668;28;20598;-72
2023/11/18 12:54:50;;;;;;;13.00;12.60;;;8.30;99.90;;;;;;5055949;28;20510;-73
2023/11/18 12:57:17;;;;;;;13.03;12.63;;;8.40;99.90;;;;;;5049080;28;20617;-72
2023/11/18 12:59:46;;;;;;;13.00;12.60;;;8.40;99.90;;;;;;5054223;28;20467;-71
2023/11/18 13:02:19;;;;;;;12.80;12.40;;;8.30;99.90;;;;;;5055217;28;20460;-71
2023/11/18 13:04:47;;;;;;;12.20;11.80;;;8.20;99.90;;;;;;5056572;28;20848;-71
2023/11/18 13:07:14;;;;;;;12.60;12.20;;;8.20;99.90;;;;;;5054203;28;20494;-71
2023/11/18 13:09:44;;;;;;;12.00;11.70;;;8.20;99.90;;;;;;5056229;28;20463;-72
2023/11/18 13:12:14;;;;;;;12.03;11.73;;;8.10;99.90;;;;;;5050333;28;20878;-71
2023/11/18 13:14:42;;;;;;;12.60;12.20;;;8.10;99.90;;;;;;5054273;28;20608;-69
2023/11/18 13:17:11;;;;;;;11.90;11.60;;;8.10;99.90;;;;;;5057052;28;20545;-73
2023/11/18 13:19:39;;;;;;;11.80;11.50;;;8.10;99.90;;;;;;5054452;28;20980;-72
2023/11/18 13:22:08;;;;;;;11.90;11.60;;;8.20;99.90;;;;;;5051292;28;20464;-70
2023/11/18 13:24:39;;;;;;;11.30;11.00;;;8.20;99.90;;;;;;5059821;28;20495;-71
2023/11/18 13:27:08;;;;;;;11.60;11.30;;;8.20;99.90;;;;;;5076190;28;20470;-71
2023/11/18 13:29:39;;;;;;;11.30;11.00;;;8.10;99.90;;;;;;5072452;28;20455;-72
2023/11/18 13:32:07;;;;;;;11.00;10.70;;;8.10;99.90;;;;;;5071252;28;20495;-71